Nearby METAR Reports

METAR is the scheduled surface weather observation taken hourly at civil and military airport locations.

METAR is an acronym from the French language and roughly translates as Aviation Routine Weather Report.

 

EGPL - Benbecula Island, United Kingdom
Distance from station: WNW 41mi, 66km
Updated: 21/11/2018 06:20
Clear
Clear
 Wind from NE
Wind: NE 16 mph , 26 km/h
Temperature: 6°C
Wind Chill: 2°C
Dew Point: 3°C
Humidity: 81%
Barometer: 1016 hPa
Clouds: Clear
Visibility: 6 miles , 10 km
2018/11/21 06:20 EGPL 210620Z AUTO 05014KT 9999 NCD 06/03 Q1016
EGPU - Tiree Island, United Kingdom
Distance from station: SSW 56mi, 90km
Updated: 21/11/2018 06:20
Clear
Clear
 Wind from NE
Wind: NE 25 mph , 41 km/h
Temperature: 7°C
Wind Chill: 2°C
Dew Point: 2°C
Humidity: 71%
Barometer: 1013 hPa
Clouds: Clear
Visibility: 6 miles , 10 km
2018/11/21 06:20 EGPU 210620Z AUTO 04022KT 9999 NCD 07/02 Q1013
 
EGEO - Oban Airport, United Kingdom
Distance from station: SE 65mi, 105km
Updated: 20/11/2018 15:50
NOT Current
Partly cloudy
Partly cloudy
 Wind from ENE
Wind: ENE 13 mph , 20 km/h
Temperature: 7°C
Wind Chill: 4°C
Dew Point: 2°C
Humidity: 71%
Barometer: 1020 hPa
Clouds: Partly cloudy
Visibility: 6 miles , 10 km
Cloud details: Partly cloudy 1128 m
2018/11/20 15:50 EGEO 201550Z 06011KT 9999 SCT037 07/02 Q1020
EGPO - Stornoway, United Kingdom
Distance from station: 0 66mi, 106km
Updated: 21/11/2018 06:20
Partly cloudy
Partly cloudy
 Wind from E
Wind: E 14 mph , 22 km/h
Temperature: 7°C
Wind Chill: 4°C
Dew Point: 3°C
Humidity: 76%
Barometer: 1019 hPa
Clouds: Partly cloudy
Visibility: 6 miles , 10 km
Cloud details: Partly cloudy 701 m
Partly cloudy 1158 m
2018/11/21 06:20 EGPO 210620Z 08012KT 9999 SCT023 SCT038 07/03 Q1019
 
EGPE - Inverness/Dalcro, United Kingdom
Distance from station: ENE 88mi, 141km
Updated: 21/11/2018 06:20
Few Clouds
Few Clouds
 Wind from ENE
Wind: ENE 16 mph , 26 km/h
Temperature: 5°C
Wind Chill: 1°C
Dew Point: 4°C
Humidity: 93%
Barometer: 1017 hPa
Clouds: Few Clouds
Visibility: 6 miles , 10 km
Cloud details: Few Clouds 732 m
2018/11/21 06:20 EGPE 210620Z 06014KT 9999 FEW024 05/04 Q1017
EGQA - Tain Range (saws, United Kingdom
Distance from station: ENE 97mi, 156km
Updated: 20/11/2018 19:50
NOT Current
Light rain, Partly cloudy
Light rain, Partly cloudy
 Wind from E
Wind: E 18 mph , 30 km/h
Summary: Light rain
Clouds: Partly cloudy
Visibility: 6 miles , 10 km
Cloud details: Few Clouds 457 m
Partly cloudy 1219 m
2018/11/20 19:50 EGQA 201950Z 08016KT 9999 -RA FEW015 SCT040 04/// Q1024 BLU
 
EGQK - Kinloss Raf, United Kingdom
Distance from station: ENE 107mi, 171km
Updated: 21/11/2018 05:50
Mostly cloudy
Mostly cloudy
 Wind from E
Wind: E 16 mph , 26 km/h
Temperature: 6°C
Wind Chill: 2°C
Dew Point: 4°C
Humidity: 87%
Barometer: 1018 hPa
Clouds: Mostly cloudy
Visibility: 6 miles , 10 km
Cloud details: Few Clouds 732 m
Mostly cloudy 1524 m
2018/11/21 05:50 EGQK 210550Z AUTO 08014KT 9999 FEW024/// BKN050/// 06/04 Q1018
EGPI - Islay/Port Ellen, United Kingdom
Distance from station: S 110mi, 177km
Updated: 21/11/2018 06:20
Light rain, Few clouds
Light rain, Few clouds
 Wind from NE
Wind: NE 14 mph , 22 km/h
Temperature: 6°C
Wind Chill: 2°C
Dew Point: 4°C
Humidity: 87%
Barometer: 1010 hPa
Summary: Light rain
Clouds: Few Clouds
Visibility: 6 miles , 10 km
Cloud details: Few Clouds 762 m
2018/11/21 06:20 EGPI 210620Z AUTO 04012KT 360V080 9999 -RA FEW025/// 06/04 Q1010
 
EGQS - Lossiemouth Raf, United Kingdom
Distance from station: ENE 117mi, 188km
Updated: 21/11/2018 05:50
Light rain, Showers, Mostly cloudy
Light rain, Showers, Mostly cloudy
 Wind from E
Wind: E 23 mph , 37 km/h, Gust: 37 mph , 59 km/h
Temperature: 7°C
Wind Chill: 2°C
Dew Point: 4°C
Humidity: 81%
Barometer: 1018 hPa
Summary: Light rain, Showers
Clouds: Mostly cloudy
Visibility: 6 miles , 10 km
Cloud details: Few Clouds 610 m
Partly cloudy 1219 m
Mostly cloudy 1676 m
2018/11/21 05:50 EGQS 210550Z 10020G32KT 9999 -SHRA FEW020 SCT040 BKN055 07/04 Q1018 BLU
EGPF - Glasgow Airport, United Kingdom
Distance from station: SE 121mi, 195km
Updated: 21/11/2018 06:20
Light rain, Thunderstorm
Light rain, Thunderstorm
 Wind from ENE
Wind: ENE 18 mph , 30 km/h
Temperature: 6°C
Wind Chill: 2°C
Dew Point: 4°C
Humidity: 87%
Barometer: 1011 hPa
Summary: Light rain
Clouds: Thunderstorm
Visibility: 6 miles , 10 km
Cloud details: Mostly cloudy 579 m
Mostly cloudy 762 m
Mostly cloudy 1128 m
2018/11/21 06:20 EGPF 210620Z AUTO 06016KT 9999 -RA BKN019/// BKN025/// BKN037/// //////CB 06/04 Q1011
 
EGEC - Campbeltown, United Kingdom
Distance from station: SSE 129mi, 207km
Updated: 20/11/2018 17:20
NOT Current
Partly cloudy
Partly cloudy
 Wind from ENE
Wind: ENE 22 mph , 35 km/h, Gust: 33 mph , 54 km/h
Temperature: 7°C
Wind Chill: 3°C
Dew Point: 2°C
Humidity: 71%
Barometer: 1017 hPa
Clouds: Partly cloudy
Visibility: 6 miles , 10 km
Cloud details: Few Clouds 579 m
Partly cloudy 1463 m
2018/11/20 17:20 EGEC 201720Z 07019G29KT 9999 FEW019 SCT048 07/02 Q1017
EGPN - Dundee/Riverside, United Kingdom
Distance from station: ESE 137mi, 221km
Updated: 21/11/2018 06:20
Partly cloudy
Partly cloudy
 Wind from E
Wind: E 24 mph , 39 km/h, Gust: 37 mph , 59 km/h
Temperature: 8°C
Wind Chill: 3°C
Dew Point: 6°C
Humidity: 87%
Barometer: 1013 hPa
Clouds: Partly cloudy
Visibility: 6 miles , 10 km
Cloud details: Few Clouds 549 m
Partly cloudy 853 m
2018/11/21 06:20 EGPN 210620Z 10021G32KT 9999 FEW018 SCT028 08/06 Q1013
 
EGPK - Prestwick(Civ/Na, United Kingdom
Distance from station: SSE 139mi, 224km
Updated: 21/11/2018 06:20
Partly cloudy
Partly cloudy
 Wind from ENE
Wind: ENE 8 mph , 13 km/h
Temperature: 6°C
Wind Chill: 3°C
Dew Point: 3°C
Humidity: 81%
Barometer: 1010 hPa
Clouds: Partly cloudy
Visibility: 6 miles , 10 km
Cloud details: Few Clouds 914 m
Partly cloudy 1463 m
2018/11/21 06:20 EGPK 210620Z 06007KT 9999 FEW030 SCT048 06/03 Q1010
EGQL - Leuchars Raf, United Kingdom
Distance from station: ESE 145mi, 233km
Updated: 21/11/2018 05:50
Light rain, Showers, Mostly cloudy
Light rain, Showers, Mostly cloudy
 Wind from E
Wind: E 37 mph , 59 km/h
Temperature: 7°C
Wind Chill: 1°C
Dew Point: 6°C
Humidity: 93%
Barometer: 1013 hPa
Summary: Light rain, Showers
Clouds: Mostly cloudy
Visibility: 6 miles , 10 km
Cloud details: Few Clouds 457 m
Mostly cloudy 1006 m
2018/11/21 05:50 EGQL 210550Z 10032KT 9999 -SHRA FEW015 BKN033 07/06 Q1013 RERA BLU
 
EGPH - Edinburgh Airpor, United Kingdom
Distance from station: SE 145mi, 234km
Updated: 21/11/2018 06:20
Light rain, Mostly cloudy
Light rain, Mostly cloudy
 Wind from E
Wind: E 16 mph , 26 km/h
Temperature: 6°C
Wind Chill: 2°C
Dew Point: 4°C
Humidity: 87%
Barometer: 1011 hPa
Summary: Light rain
Clouds: Mostly cloudy
Visibility: 6 miles , 10 km
Cloud details: Few Clouds 396 m
Mostly cloudy 549 m
Mostly cloudy 1036 m
2018/11/21 06:20 EGPH 210620Z 08014KT 9999 -RA FEW013TCU BKN018 BKN034 06/04 Q1011 RERA
EGPC - Wick, United Kingdom
Distance from station: NE 146mi, 234km
Updated: 21/11/2018 06:20
Light rain, Mostly cloudy
Light rain, Mostly cloudy
 Wind from ESE
Wind: ESE 29 mph , 46 km/h
Temperature: 7°C
Wind Chill: 2°C
Dew Point: 4°C
Humidity: 81%
Barometer: 1021 hPa
Summary: Light rain
Clouds: Mostly cloudy
Visibility: 6 miles , 10 km
Cloud details: Few Clouds 244 m
Partly cloudy 457 m
Mostly cloudy 610 m
2018/11/21 06:20 EGPC 210620Z AUTO 11025KT 9999 -RA FEW008/// SCT015/// BKN020/// 07/04 Q1021

-

free counters
QR Code Twitter Scottish Weather Network UK Weather Network
Argyll House B & B

Argyll House B & B is situated in North West Skye and is the perfect base to see all that the Isle of Skye has to offer.
We are now full for 2018 - Bookings been taken for 2019.